<?xml version="1.0" encoding="UTF-8" standalone="no" ?>
<gpx xmlns="http://www.topografix.com/GPX/1/1" creator="MapSource 6.13.7" version="1.1" xmlns:xsi="http://www.w3.org/2001/XMLSchema-instance" xsi:schemaLocation="http://www.garmin.com/xmlschemas/GpxExtensions/v3 http://www.garmin.com/xmlschemas/GpxExtensions/v3/GpxExtensionsv3.xsd http://www.topografix.com/GPX/1/1 http://www.topografix.com/GPX/1/1/gpx.xsd">

  <metadata>
    <link href="http://www.garmin.com">
      <text>Garmin International</text>
    </link>
    <time>2014-10-16T00:08:53Z</time>
    <bounds maxlat="-37.4444220" maxlon="175.4873013" minlat="-37.5056291" minlon="175.4469090"/>
  </metadata>

  <wpt lat="-37.4444318" lon="175.4873013">
    <time>2014-10-16T00:01:52Z</time>
    <name>Waiti Road North End</name>
    <cmt>Old Hill Rd and Waiti Rd</cmt>
    <desc>Old Hill Rd and Waiti Rd</desc>
    <sym>Bike Trail</sym>
    <extensions>
      <gpxx:WaypointExtension xmlns:gpxx="http://www.garmin.com/xmlschemas/GpxExtensions/v3">
        <gpxx:DisplayMode>SymbolAndName</gpxx:DisplayMode>
      </gpxx:WaypointExtension>
    </extensions>
  </wpt>

  <wpt lat="-37.5056291" lon="175.4470897">
    <time>2014-10-16T00:01:08Z</time>
    <name>Waiti Road South End</name>
    <cmt>Tahuna-Ohinewai Rd and Waiti Rd</cmt>
    <desc>Tahuna-Ohinewai Rd and Waiti Rd</desc>
    <sym>Bike Trail</sym>
    <extensions>
      <gpxx:WaypointExtension xmlns:gpxx="http://www.garmin.com/xmlschemas/GpxExtensions/v3">
        <gpxx:DisplayMode>SymbolAndName</gpxx:DisplayMode>
      </gpxx:WaypointExtension>
    </extensions>
  </wpt>

  <trk>
    <name>Waiti Road</name>
    <link href="http://www.adventureridingnz.co.nz/gps-tracks-rides/waiti-road/"/>
    <extensions>
      <gpxx:TrackExtension xmlns:gpxx="http://www.garmin.com/xmlschemas/GpxExtensions/v3">
        <gpxx:DisplayColor>Yellow</gpxx:DisplayColor>
      </gpxx:TrackExtension>
    </extensions>
    <trkseg>
      <trkpt lat="-37.5055730" lon="175.4470040">
        <ele>14.5600000</ele>
        <time>2014-10-15T06:12:33Z</time>
      </trkpt>
      <trkpt lat="-37.5053640" lon="175.4472430">
        <ele>18.4000000</ele>
        <time>2014-10-15T06:16:31Z</time>
      </trkpt>
      <trkpt lat="-37.5052460" lon="175.4473600">
        <ele>19.8400000</ele>
        <time>2014-10-15T06:16:35Z</time>
      </trkpt>
      <trkpt lat="-37.5048880" lon="175.4474510">
        <ele>21.2900000</ele>
        <time>2014-10-15T06:16:40Z</time>
      </trkpt>
      <trkpt lat="-37.5020480" lon="175.4469090">
        <ele>26.0900000</ele>
        <time>2014-10-15T06:17:03Z</time>
      </trkpt>
      <trkpt lat="-37.5013160" lon="175.4469900">
        <ele>24.6500000</ele>
        <time>2014-10-15T06:17:08Z</time>
      </trkpt>
      <trkpt lat="-37.4993200" lon="175.4484210">
        <ele>28.0200000</ele>
        <time>2014-10-15T06:17:24Z</time>
      </trkpt>
      <trkpt lat="-37.4963530" lon="175.4472070">
        <ele>35.2300000</ele>
        <time>2014-10-15T06:17:46Z</time>
      </trkpt>
      <trkpt lat="-37.4959590" lon="175.4471080">
        <ele>34.2600000</ele>
        <time>2014-10-15T06:17:49Z</time>
      </trkpt>
      <trkpt lat="-37.4953710" lon="175.4473610">
        <ele>34.7400000</ele>
        <time>2014-10-15T06:17:54Z</time>
      </trkpt>
      <trkpt lat="-37.4951750" lon="175.4480230">
        <ele>35.7100000</ele>
        <time>2014-10-15T06:17:59Z</time>
      </trkpt>
      <trkpt lat="-37.4950580" lon="175.4484150">
        <ele>35.2300000</ele>
        <time>2014-10-15T06:18:02Z</time>
      </trkpt>
      <trkpt lat="-37.4947880" lon="175.4486950">
        <ele>35.7100000</ele>
        <time>2014-10-15T06:18:05Z</time>
      </trkpt>
      <trkpt lat="-37.4929020" lon="175.4489140">
        <ele>43.8800000</ele>
        <time>2014-10-15T06:18:19Z</time>
      </trkpt>
      <trkpt lat="-37.4911070" lon="175.4489750">
        <ele>44.3600000</ele>
        <time>2014-10-15T06:18:31Z</time>
      </trkpt>
      <trkpt lat="-37.4875560" lon="175.4486170">
        <ele>55.8900000</ele>
        <time>2014-10-15T06:18:53Z</time>
      </trkpt>
      <trkpt lat="-37.4866550" lon="175.4486690">
        <ele>58.3000000</ele>
        <time>2014-10-15T06:18:59Z</time>
      </trkpt>
      <trkpt lat="-37.4860640" lon="175.4485880">
        <ele>57.8200000</ele>
        <time>2014-10-15T06:19:04Z</time>
      </trkpt>
      <trkpt lat="-37.4852230" lon="175.4491060">
        <ele>59.7400000</ele>
        <time>2014-10-15T06:19:12Z</time>
      </trkpt>
      <trkpt lat="-37.4847970" lon="175.4489960">
        <ele>61.1800000</ele>
        <time>2014-10-15T06:19:17Z</time>
      </trkpt>
      <trkpt lat="-37.4840720" lon="175.4492480">
        <ele>64.0700000</ele>
        <time>2014-10-15T06:19:24Z</time>
      </trkpt>
      <trkpt lat="-37.4834640" lon="175.4506440">
        <ele>66.9500000</ele>
        <time>2014-10-15T06:19:37Z</time>
      </trkpt>
      <trkpt lat="-37.4831030" lon="175.4510110">
        <ele>70.7900000</ele>
        <time>2014-10-15T06:19:43Z</time>
      </trkpt>
      <trkpt lat="-37.4829020" lon="175.4515750">
        <ele>73.6800000</ele>
        <time>2014-10-15T06:19:49Z</time>
      </trkpt>
      <trkpt lat="-37.4828980" lon="175.4520300">
        <ele>71.7600000</ele>
        <time>2014-10-15T06:19:55Z</time>
      </trkpt>
      <trkpt lat="-37.4822900" lon="175.4519150">
        <ele>75.6000000</ele>
        <time>2014-10-15T06:20:06Z</time>
      </trkpt>
      <trkpt lat="-37.4820330" lon="175.4523350">
        <ele>74.1600000</ele>
        <time>2014-10-15T06:20:13Z</time>
      </trkpt>
      <trkpt lat="-37.4818030" lon="175.4519830">
        <ele>76.5600000</ele>
        <time>2014-10-15T06:20:20Z</time>
      </trkpt>
      <trkpt lat="-37.4814570" lon="175.4519460">
        <ele>78.0000000</ele>
        <time>2014-10-15T06:20:25Z</time>
      </trkpt>
      <trkpt lat="-37.4809010" lon="175.4525540">
        <ele>80.8900000</ele>
        <time>2014-10-15T06:20:36Z</time>
      </trkpt>
      <trkpt lat="-37.4808100" lon="175.4530070">
        <ele>83.2900000</ele>
        <time>2014-10-15T06:20:42Z</time>
      </trkpt>
      <trkpt lat="-37.4806210" lon="175.4529600">
        <ele>85.6900000</ele>
        <time>2014-10-15T06:20:46Z</time>
      </trkpt>
      <trkpt lat="-37.4801700" lon="175.4528670">
        <ele>86.1800000</ele>
        <time>2014-10-15T06:20:53Z</time>
      </trkpt>
      <trkpt lat="-37.4795570" lon="175.4535120">
        <ele>86.1800000</ele>
        <time>2014-10-15T06:21:02Z</time>
      </trkpt>
      <trkpt lat="-37.4792800" lon="175.4541330">
        <ele>83.2900000</ele>
        <time>2014-10-15T06:21:08Z</time>
      </trkpt>
      <trkpt lat="-37.4789200" lon="175.4544770">
        <ele>83.2900000</ele>
        <time>2014-10-15T06:21:13Z</time>
      </trkpt>
      <trkpt lat="-37.4781430" lon="175.4542990">
        <ele>85.6900000</ele>
        <time>2014-10-15T06:21:23Z</time>
      </trkpt>
      <trkpt lat="-37.4778360" lon="175.4545760">
        <ele>87.6200000</ele>
        <time>2014-10-15T06:21:28Z</time>
      </trkpt>
      <trkpt lat="-37.4776680" lon="175.4551050">
        <ele>86.6600000</ele>
        <time>2014-10-15T06:21:34Z</time>
      </trkpt>
      <trkpt lat="-37.4767890" lon="175.4557060">
        <ele>90.5000000</ele>
        <time>2014-10-15T06:22:23Z</time>
      </trkpt>
      <trkpt lat="-37.4761770" lon="175.4557470">
        <ele>90.9800000</ele>
        <time>2014-10-15T06:22:31Z</time>
      </trkpt>
      <trkpt lat="-37.4757600" lon="175.4563280">
        <ele>89.0600000</ele>
        <time>2014-10-15T06:22:39Z</time>
      </trkpt>
      <trkpt lat="-37.4751590" lon="175.4567470">
        <ele>89.5400000</ele>
        <time>2014-10-15T06:22:48Z</time>
      </trkpt>
      <trkpt lat="-37.4746340" lon="175.4567290">
        <ele>92.9000000</ele>
        <time>2014-10-15T06:22:56Z</time>
      </trkpt>
      <trkpt lat="-37.4740100" lon="175.4570570">
        <ele>94.3500000</ele>
        <time>2014-10-15T06:23:06Z</time>
      </trkpt>
      <trkpt lat="-37.4739070" lon="175.4571020">
        <ele>94.3500000</ele>
        <time>2014-10-15T06:23:08Z</time>
      </trkpt>
      <trkpt lat="-37.4728950" lon="175.4567070">
        <ele>99.1500000</ele>
        <time>2014-10-15T06:23:24Z</time>
      </trkpt>
      <trkpt lat="-37.4715230" lon="175.4571210">
        <ele>94.3500000</ele>
        <time>2014-10-15T06:23:41Z</time>
      </trkpt>
      <trkpt lat="-37.4707160" lon="175.4571590">
        <ele>91.4600000</ele>
        <time>2014-10-15T06:23:51Z</time>
      </trkpt>
      <trkpt lat="-37.4702390" lon="175.4566120">
        <ele>94.8300000</ele>
        <time>2014-10-15T06:24:01Z</time>
      </trkpt>
      <trkpt lat="-37.4702060" lon="175.4559990">
        <ele>99.1500000</ele>
        <time>2014-10-15T06:24:56Z</time>
      </trkpt>
      <trkpt lat="-37.4700040" lon="175.4554880">
        <ele>102.0400000</ele>
        <time>2014-10-15T06:25:05Z</time>
      </trkpt>
      <trkpt lat="-37.4690110" lon="175.4550200">
        <ele>110.6900000</ele>
        <time>2014-10-15T06:25:19Z</time>
      </trkpt>
      <trkpt lat="-37.4686130" lon="175.4551260">
        <ele>112.6100000</ele>
        <time>2014-10-15T06:25:26Z</time>
      </trkpt>
      <trkpt lat="-37.4682220" lon="175.4550030">
        <ele>116.9400000</ele>
        <time>2014-10-15T06:25:34Z</time>
      </trkpt>
      <trkpt lat="-37.4681000" lon="175.4550460">
        <ele>117.4200000</ele>
        <time>2014-10-15T06:25:36Z</time>
      </trkpt>
      <trkpt lat="-37.4680240" lon="175.4553160">
        <ele>120.7800000</ele>
        <time>2014-10-15T06:25:42Z</time>
      </trkpt>
      <trkpt lat="-37.4680100" lon="175.4556370">
        <ele>124.1500000</ele>
        <time>2014-10-15T06:25:47Z</time>
      </trkpt>
      <trkpt lat="-37.4679000" lon="175.4557330">
        <ele>125.1100000</ele>
        <time>2014-10-15T06:25:49Z</time>
      </trkpt>
      <trkpt lat="-37.4670140" lon="175.4557990">
        <ele>133.2800000</ele>
        <time>2014-10-15T06:26:01Z</time>
      </trkpt>
      <trkpt lat="-37.4667890" lon="175.4561830">
        <ele>134.2400000</ele>
        <time>2014-10-15T06:26:08Z</time>
      </trkpt>
      <trkpt lat="-37.4665240" lon="175.4561470">
        <ele>135.6800000</ele>
        <time>2014-10-15T06:26:14Z</time>
      </trkpt>
      <trkpt lat="-37.4662630" lon="175.4564430">
        <ele>139.0500000</ele>
        <time>2014-10-15T06:26:19Z</time>
      </trkpt>
      <trkpt lat="-37.4660530" lon="175.4567120">
        <ele>141.4500000</ele>
        <time>2014-10-15T06:26:23Z</time>
      </trkpt>
      <trkpt lat="-37.4659930" lon="175.4579610">
        <ele>151.0600000</ele>
        <time>2014-10-15T06:26:37Z</time>
      </trkpt>
      <trkpt lat="-37.4658620" lon="175.4589440">
        <ele>155.8700000</ele>
        <time>2014-10-15T06:26:46Z</time>
      </trkpt>
      <trkpt lat="-37.4660070" lon="175.4594590">
        <ele>158.7500000</ele>
        <time>2014-10-15T06:26:52Z</time>
      </trkpt>
      <trkpt lat="-37.4659790" lon="175.4605050">
        <ele>163.5600000</ele>
        <time>2014-10-15T06:27:02Z</time>
      </trkpt>
      <trkpt lat="-37.4656090" lon="175.4609080">
        <ele>167.4100000</ele>
        <time>2014-10-15T06:27:09Z</time>
      </trkpt>
      <trkpt lat="-37.4647720" lon="175.4631880">
        <ele>169.8100000</ele>
        <time>2014-10-15T06:27:31Z</time>
      </trkpt>
      <trkpt lat="-37.4642650" lon="175.4635990">
        <ele>174.1400000</ele>
        <time>2014-10-15T06:27:38Z</time>
      </trkpt>
      <trkpt lat="-37.4638260" lon="175.4648910">
        <ele>180.3800000</ele>
        <time>2014-10-15T06:27:50Z</time>
      </trkpt>
      <trkpt lat="-37.4633040" lon="175.4659740">
        <ele>184.2300000</ele>
        <time>2014-10-15T06:28:00Z</time>
      </trkpt>
      <trkpt lat="-37.4628780" lon="175.4677570">
        <ele>188.5600000</ele>
        <time>2014-10-15T06:28:15Z</time>
      </trkpt>
      <trkpt lat="-37.4625580" lon="175.4679090">
        <ele>190.4800000</ele>
        <time>2014-10-15T06:28:21Z</time>
      </trkpt>
      <trkpt lat="-37.4625280" lon="175.4679570">
        <ele>190.4800000</ele>
        <time>2014-10-15T06:28:22Z</time>
      </trkpt>
      <trkpt lat="-37.4626560" lon="175.4682710">
        <ele>191.9200000</ele>
        <time>2014-10-15T06:28:27Z</time>
      </trkpt>
      <trkpt lat="-37.4627300" lon="175.4684660">
        <ele>191.9200000</ele>
        <time>2014-10-15T06:28:30Z</time>
      </trkpt>
      <trkpt lat="-37.4625120" lon="175.4687170">
        <ele>193.3600000</ele>
        <time>2014-10-15T06:28:35Z</time>
      </trkpt>
      <trkpt lat="-37.4623000" lon="175.4698600">
        <ele>189.5200000</ele>
        <time>2014-10-15T06:28:47Z</time>
      </trkpt>
      <trkpt lat="-37.4617530" lon="175.4706280">
        <ele>185.1900000</ele>
        <time>2014-10-15T06:29:28Z</time>
      </trkpt>
      <trkpt lat="-37.4616060" lon="175.4706560">
        <ele>184.7100000</ele>
        <time>2014-10-15T06:29:33Z</time>
      </trkpt>
      <trkpt lat="-37.4617290" lon="175.4697240">
        <ele>189.5200000</ele>
        <time>2014-10-15T06:29:44Z</time>
      </trkpt>
      <trkpt lat="-37.4616000" lon="175.4694990">
        <ele>191.4400000</ele>
        <time>2014-10-15T06:29:47Z</time>
      </trkpt>
      <trkpt lat="-37.4614920" lon="175.4690580">
        <ele>193.8400000</ele>
        <time>2014-10-15T06:29:52Z</time>
      </trkpt>
      <trkpt lat="-37.4613680" lon="175.4689220">
        <ele>194.3200000</ele>
        <time>2014-10-15T06:29:55Z</time>
      </trkpt>
      <trkpt lat="-37.4611980" lon="175.4690340">
        <ele>196.2500000</ele>
        <time>2014-10-15T06:29:58Z</time>
      </trkpt>
      <trkpt lat="-37.4609450" lon="175.4691180">
        <ele>198.1700000</ele>
        <time>2014-10-15T06:30:03Z</time>
      </trkpt>
      <trkpt lat="-37.4607080" lon="175.4690550">
        <ele>198.1700000</ele>
        <time>2014-10-15T06:30:07Z</time>
      </trkpt>
      <trkpt lat="-37.4598920" lon="175.4696340">
        <ele>201.5300000</ele>
        <time>2014-10-15T06:30:17Z</time>
      </trkpt>
      <trkpt lat="-37.4594100" lon="175.4693920">
        <ele>204.4200000</ele>
        <time>2014-10-15T06:30:23Z</time>
      </trkpt>
      <trkpt lat="-37.4581900" lon="175.4690720">
        <ele>206.3400000</ele>
        <time>2014-10-15T06:33:07Z</time>
      </trkpt>
      <trkpt lat="-37.4575130" lon="175.4689080">
        <ele>205.8600000</ele>
        <time>2014-10-15T06:33:15Z</time>
      </trkpt>
      <trkpt lat="-37.4570240" lon="175.4688400">
        <ele>202.0100000</ele>
        <time>2014-10-15T06:33:20Z</time>
      </trkpt>
      <trkpt lat="-37.4561990" lon="175.4689050">
        <ele>195.2800000</ele>
        <time>2014-10-15T06:33:28Z</time>
      </trkpt>
      <trkpt lat="-37.4556240" lon="175.4677330">
        <ele>188.5600000</ele>
        <time>2014-10-15T06:33:40Z</time>
      </trkpt>
      <trkpt lat="-37.4553970" lon="175.4677820">
        <ele>187.1100000</ele>
        <time>2014-10-15T06:33:43Z</time>
      </trkpt>
      <trkpt lat="-37.4547630" lon="175.4689400">
        <ele>179.4200000</ele>
        <time>2014-10-15T06:33:56Z</time>
      </trkpt>
      <trkpt lat="-37.4538080" lon="175.4700810">
        <ele>166.9300000</ele>
        <time>2014-10-15T06:34:11Z</time>
      </trkpt>
      <trkpt lat="-37.4534750" lon="175.4713010">
        <ele>155.8700000</ele>
        <time>2014-10-15T06:34:23Z</time>
      </trkpt>
      <trkpt lat="-37.4529410" lon="175.4715540">
        <ele>150.5800000</ele>
        <time>2014-10-15T06:34:29Z</time>
      </trkpt>
      <trkpt lat="-37.4522960" lon="175.4714040">
        <ele>143.8500000</ele>
        <time>2014-10-15T06:34:37Z</time>
      </trkpt>
      <trkpt lat="-37.4521250" lon="175.4722940">
        <ele>139.5300000</ele>
        <time>2014-10-15T06:34:47Z</time>
      </trkpt>
      <trkpt lat="-37.4510990" lon="175.4724330">
        <ele>129.4300000</ele>
        <time>2014-10-15T06:34:59Z</time>
      </trkpt>
      <trkpt lat="-37.4507710" lon="175.4731650">
        <ele>124.1500000</ele>
        <time>2014-10-15T06:35:07Z</time>
      </trkpt>
      <trkpt lat="-37.4501460" lon="175.4739780">
        <ele>116.4600000</ele>
        <time>2014-10-15T06:35:16Z</time>
      </trkpt>
      <trkpt lat="-37.4497780" lon="175.4745910">
        <ele>111.1700000</ele>
        <time>2014-10-15T06:35:23Z</time>
      </trkpt>
      <trkpt lat="-37.4492470" lon="175.4747830">
        <ele>106.8400000</ele>
        <time>2014-10-15T06:35:31Z</time>
      </trkpt>
      <trkpt lat="-37.4489420" lon="175.4749940">
        <ele>103.0000000</ele>
        <time>2014-10-15T06:35:36Z</time>
      </trkpt>
      <trkpt lat="-37.4482410" lon="175.4773540">
        <ele>87.6200000</ele>
        <time>2014-10-15T06:36:01Z</time>
      </trkpt>
      <trkpt lat="-37.4475760" lon="175.4782360">
        <ele>83.2900000</ele>
        <time>2014-10-15T06:36:15Z</time>
      </trkpt>
      <trkpt lat="-37.4476990" lon="175.4787990">
        <ele>81.8500000</ele>
        <time>2014-10-15T06:36:23Z</time>
      </trkpt>
      <trkpt lat="-37.4483430" lon="175.4800410">
        <ele>73.2000000</ele>
        <time>2014-10-15T06:37:06Z</time>
      </trkpt>
      <trkpt lat="-37.4485450" lon="175.4809400">
        <ele>69.3500000</ele>
        <time>2014-10-15T06:37:21Z</time>
      </trkpt>
      <trkpt lat="-37.4481670" lon="175.4820140">
        <ele>61.6600000</ele>
        <time>2014-10-15T06:37:35Z</time>
      </trkpt>
      <trkpt lat="-37.4483610" lon="175.4829930">
        <ele>55.8900000</ele>
        <time>2014-10-15T06:37:50Z</time>
      </trkpt>
      <trkpt lat="-37.4481460" lon="175.4832290">
        <ele>53.0100000</ele>
        <time>2014-10-15T06:37:56Z</time>
      </trkpt>
      <trkpt lat="-37.4480410" lon="175.4837490">
        <ele>49.1600000</ele>
        <time>2014-10-15T06:38:05Z</time>
      </trkpt>
      <trkpt lat="-37.4474360" lon="175.4841920">
        <ele>43.8800000</ele>
        <time>2014-10-15T06:38:18Z</time>
      </trkpt>
      <trkpt lat="-37.4470220" lon="175.4850860">
        <ele>36.6700000</ele>
        <time>2014-10-15T06:38:34Z</time>
      </trkpt>
      <trkpt lat="-37.4460240" lon="175.4851760">
        <ele>28.5000000</ele>
        <time>2014-10-15T06:38:51Z</time>
      </trkpt>
      <trkpt lat="-37.4449950" lon="175.4863220">
        <ele>17.9200000</ele>
        <time>2014-10-15T06:39:10Z</time>
      </trkpt>
      <trkpt lat="-37.4444590" lon="175.4872380">
        <ele>12.6300000</ele>
        <time>2014-10-15T06:39:26Z</time>
      </trkpt>
      <trkpt lat="-37.4444220" lon="175.4872610">
        <ele>12.1500000</ele>
        <time>2014-10-15T06:39:28Z</time>
      </trkpt>
    </trkseg>
  </trk>

</gpx>
